sensor_id;sensor_type;location;lat;lon;timestamp;pressure;altitude;pressure_sealevel;temperature;humidity
71970;BME280;59838;52.152;5.436;2023-03-25T00:01:34;100183.38;;;9.24;84.16
71970;BME280;59838;52.152;5.436;2023-03-25T00:04:01;100194.34;;;9.26;84.08
71970;BME280;59838;52.152;5.436;2023-03-25T00:06:30;100193.75;;;9.24;84.15
71970;BME280;59838;52.152;5.436;2023-03-25T00:08:59;100212.06;;;9.23;84.57
71970;BME280;59838;52.152;5.436;2023-03-25T00:11:27;100199.47;;;9.20;85.15
71970;BME280;59838;52.152;5.436;2023-03-25T00:13:54;100205.88;;;9.17;85.19
71970;BME280;59838;52.152;5.436;2023-03-25T00:16:20;100208.28;;;9.19;84.85
71970;BME280;59838;52.152;5.436;2023-03-25T00:18:47;100201.47;;;9.18;84.67
71970;BME280;59838;52.152;5.436;2023-03-25T00:21:13;100197.06;;;9.18;84.74
71970;BME280;59838;52.152;5.436;2023-03-25T00:23:40;100201.28;;;9.19;84.78
71970;BME280;59838;52.152;5.436;2023-03-25T00:26:07;100202.25;;;9.18;84.78
71970;BME280;59838;52.152;5.436;2023-03-25T00:28:35;100194.69;;;9.17;84.86
71970;BME280;59838;52.152;5.436;2023-03-25T00:31:05;100200.88;;;9.15;85.23
71970;BME280;59838;52.152;5.436;2023-03-25T00:33:32;100187.28;;;9.13;85.02
71970;BME280;59838;52.152;5.436;2023-03-25T00:36:01;100195.88;;;9.14;84.76
71970;BME280;59838;52.152;5.436;2023-03-25T00:38:33;100195.06;;;9.13;85.04
71970;BME280;59838;52.152;5.436;2023-03-25T00:41:22;100202.22;;;9.11;85.07
71970;BME280;59838;52.152;5.436;2023-03-25T00:43:52;100201.44;;;9.11;84.84
71970;BME280;59838;52.152;5.436;2023-03-25T00:46:20;100204.03;;;9.11;85.17
71970;BME280;59838;52.152;5.436;2023-03-25T00:48:49;100206.59;;;9.11;85.40
71970;BME280;59838;52.152;5.436;2023-03-25T00:51:15;100201.44;;;9.11;85.34
71970;BME280;59838;52.152;5.436;2023-03-25T00:53:49;100196.25;;;9.11;85.24
71970;BME280;59838;52.152;5.436;2023-03-25T00:56:18;100206.00;;;9.09;84.56
71970;BME280;59838;52.152;5.436;2023-03-25T00:58:44;100208.22;;;9.12;84.97
71970;BME280;59838;52.152;5.436;2023-03-25T01:01:14;100211.00;;;9.10;84.88
71970;BME280;59838;52.152;5.436;2023-03-25T01:03:42;100206.00;;;9.09;84.92
71970;BME280;59838;52.152;5.436;2023-03-25T01:06:14;100197.22;;;9.10;84.88
71970;BME280;59838;52.152;5.436;2023-03-25T01:08:42;100191.63;;;9.06;84.87
71970;BME280;59838;52.152;5.436;2023-03-25T01:11:19;100196.00;;;9.06;84.76
71970;BME280;59838;52.152;5.436;2023-03-25T01:13:46;100196.19;;;9.04;84.85
71970;BME280;59838;52.152;5.436;2023-03-25T01:16:13;100191.81;;;9.05;84.44
71970;BME280;59838;52.152;5.436;2023-03-25T01:18:39;100196.81;;;9.06;84.16
71970;BME280;59838;52.152;5.436;2023-03-25T01:21:06;100184.63;;;9.07;83.45
71970;BME280;59838;52.152;5.436;2023-03-25T01:23:33;100199.22;;;9.08;83.68
71970;BME280;59838;52.152;5.436;2023-03-25T01:26:00;100189.63;;;9.08;83.98
71970;BME280;59838;52.152;5.436;2023-03-25T01:28:27;100194.22;;;9.06;84.43
71970;BME280;59838;52.152;5.436;2023-03-25T01:31:01;100196.38;;;9.03;84.35
71970;BME280;59838;52.152;5.436;2023-03-25T01:33:28;100188.44;;;9.04;84.53
71970;BME280;59838;52.152;5.436;2023-03-25T01:35:55;100196.19;;;9.04;84.75
71970;BME280;59838;52.152;5.436;2023-03-25T01:38:22;100188.97;;;9.00;85.69
71970;BME280;59838;52.152;5.436;2023-03-25T01:40:50;100185.97;;;8.96;85.84
71970;BME280;59838;52.152;5.436;2023-03-25T01:43:17;100193.28;;;8.92;86.37
71970;BME280;59838;52.152;5.436;2023-03-25T01:45:44;100197.06;;;8.90;86.55
71970;BME280;59838;52.152;5.436;2023-03-25T01:48:16;100179.69;;;8.84;87.71
71970;BME280;59838;52.152;5.436;2023-03-25T01:50:48;100169.09;;;8.78;88.56
71970;BME280;59838;52.152;5.436;2023-03-25T01:53:17;100184.81;;;8.77;88.17
71970;BME280;59838;52.152;5.436;2023-03-25T01:55:45;100184.41;;;8.73;88.80
71970;BME280;59838;52.152;5.436;2023-03-25T01:58:14;100184.56;;;8.72;89.35
71970;BME280;59838;52.152;5.436;2023-03-25T02:00:44;100172.00;;;8.69;89.42
71970;BME280;59838;52.152;5.436;2023-03-25T02:03:11;100180.75;;;8.68;90.12
71970;BME280;59838;52.152;5.436;2023-03-25T02:06:01;100184.53;;;8.65;90.91
71970;BME280;59838;52.152;5.436;2023-03-25T02:08:36;100184.47;;;8.58;91.32
71970;BME280;59838;52.152;5.436;2023-03-25T02:11:08;100187.59;;;8.54;91.68
71970;BME280;59838;52.152;5.436;2023-03-25T02:13:39;100190.38;;;8.52;91.78
71970;BME280;59838;52.152;5.436;2023-03-25T02:22:08;100185.38;;;8.51;91.79
71970;BME280;59838;52.152;5.436;2023-03-25T02:39:03;100185.22;;;8.37;93.58
71970;BME280;59838;52.152;5.436;2023-03-25T02:44:24;100180.41;;;8.34;94.60
71970;BME280;59838;52.152;5.436;2023-03-25T02:46:55;100174.78;;;8.31;94.96
71970;BME280;59838;52.152;5.436;2023-03-25T02:49:30;100177.56;;;8.29;95.21
71970;BME280;59838;52.152;5.436;2023-03-25T02:54:32;100176.16;;;8.27;95.40
71970;BME280;59838;52.152;5.436;2023-03-25T02:56:59;100173.56;;;8.27;95.68
71970;BME280;59838;52.152;5.436;2023-03-25T02:59:29;100176.16;;;8.27;96.00
71970;BME280;59838;52.152;5.436;2023-03-25T03:01:59;100175.53;;;8.24;96.19
71970;BME280;59838;52.152;5.436;2023-03-25T03:04:28;100172.94;;;8.24;96.34
71970;BME280;59838;52.152;5.436;2023-03-25T03:06:55;100163.38;;;8.25;96.43
71970;BME280;59838;52.152;5.436;2023-03-25T03:09:44;100157.41;;;8.24;96.36
71970;BME280;59838;52.152;5.436;2023-03-25T03:14:56;100153.47;;;8.29;96.43
71970;BME280;59838;52.152;5.436;2023-03-25T03:20:18;100151.59;;;8.22;97.14
71970;BME280;59838;52.152;5.436;2023-03-25T03:23:02;100145.22;;;8.18;97.74
71970;BME280;59838;52.152;5.436;2023-03-25T03:25:47;100149.56;;;8.18;98.11
71970;BME280;59838;52.152;5.436;2023-03-25T03:28:50;100152.97;;;8.18;98.25
71970;BME280;59838;52.152;5.436;2023-03-25T03:31:24;100155.31;;;8.13;99.23
71970;BME280;59838;52.152;5.436;2023-03-25T03:34:23;100148.72;;;8.11;99.74
71970;BME280;59838;52.152;5.436;2023-03-25T03:36:54;100155.84;;;8.09;100.00
71970;BME280;59838;52.152;5.436;2023-03-25T03:39:34;100151.47;;;8.09;100.00
71970;BME280;59838;52.152;5.436;2023-03-25T03:42:22;100149.06;;;8.08;100.00
71970;BME280;59838;52.152;5.436;2023-03-25T03:44:54;100142.91;;;8.09;99.78
71970;BME280;59838;52.152;5.436;2023-03-25T03:47:24;100154.06;;;8.09;99.90
71970;BME280;59838;52.152;5.436;2023-03-25T03:50:19;100143.09;;;8.07;100.00
71970;BME280;59838;52.152;5.436;2023-03-25T03:52:51;100150.03;;;8.06;100.00
71970;BME280;59838;52.152;5.436;2023-03-25T03:55:25;100137.94;;;8.07;99.74
71970;BME280;59838;52.152;5.436;2023-03-25T03:58:05;100146.47;;;8.08;100.00
71970;BME280;59838;52.152;5.436;2023-03-25T04:00:58;100141.13;;;8.09;99.57
71970;BME280;59838;52.152;5.436;2023-03-25T04:03:51;100150.69;;;8.09;99.90
71970;BME280;59838;52.152;5.436;2023-03-25T04:06:25;100143.28;;;8.05;100.00
71970;BME280;59838;52.152;5.436;2023-03-25T04:08:56;100137.50;;;8.03;100.00
71970;BME280;59838;52.152;5.436;2023-03-25T04:11:42;100137.50;;;8.03;100.00
71970;BME280;59838;52.152;5.436;2023-03-25T04:14:10;100144.44;;;8.03;100.00
71970;BME280;59838;52.152;5.436;2023-03-25T04:16:38;100130.91;;;8.01;100.00
71970;BME280;59838;52.152;5.436;2023-03-25T04:19:05;100127.69;;;7.99;100.00
71970;BME280;59838;52.152;5.436;2023-03-25T04:21:32;100130.28;;;7.99;100.00
71970;BME280;59838;52.152;5.436;2023-03-25T04:23:59;100120.31;;;7.96;100.00
71970;BME280;59838;52.152;5.436;2023-03-25T04:26:27;100117.91;;;7.94;100.00
71970;BME280;59838;52.152;5.436;2023-03-25T04:29:00;100136.97;;;7.93;100.00
71970;BME280;59838;52.152;5.436;2023-03-25T04:31:28;100129.38;;;7.92;100.00
71970;BME280;59838;52.152;5.436;2023-03-25T04:33:57;100139.31;;;7.88;100.00
71970;BME280;59838;52.152;5.436;2023-03-25T04:36:24;100142.06;;;7.86;100.00
71970;BME280;59838;52.152;5.436;2023-03-25T04:38:54;100142.44;;;7.83;100.00
71970;BME280;59838;52.152;5.436;2023-03-25T04:41:21;100140.03;;;7.82;100.00
71970;BME280;59838;52.152;5.436;2023-03-25T04:43:48;100152.53;;;7.78;100.00
71970;BME280;59838;52.152;5.436;2023-03-25T06:18:01;100190.25;;;7.58;100.00
71970;BME280;59838;52.152;5.436;2023-03-25T06:20:27;100186.06;;;7.57;100.00
71970;BME280;59838;52.152;5.436;2023-03-25T06:22:54;100184.72;;;7.61;100.00
71970;BME280;59838;52.152;5.436;2023-03-25T06:25:20;100187.19;;;7.69;100.00
71970;BME280;59838;52.152;5.436;2023-03-25T06:27:48;100184.69;;;7.76;100.00
71970;BME280;59838;52.152;5.436;2023-03-25T06:30:18;100186.72;;;8.10;100.00
71970;BME280;59838;52.152;5.436;2023-03-25T06:32:46;100184.84;;;8.40;100.00
71970;BME280;59838;52.152;5.436;2023-03-25T06:35:17;100172.78;;;8.91;100.00
71970;BME280;59838;52.152;5.436;2023-03-25T06:37:47;100183.50;;;9.16;100.00
71970;BME280;59838;52.152;5.436;2023-03-25T06:40:14;100192.75;;;8.97;98.77
71970;BME280;59838;52.152;5.436;2023-03-25T06:42:41;100195.78;;;8.57;99.69
71970;BME280;59838;52.152;5.436;2023-03-25T06:45:08;100199.06;;;8.30;100.00
71970;BME280;59838;52.152;5.436;2023-03-25T06:47:35;100202.84;;;8.12;100.00
71970;BME280;59838;52.152;5.436;2023-03-25T06:50:01;100204.47;;;7.98;100.00
71970;BME280;59838;52.152;5.436;2023-03-25T06:52:28;100201.38;;;7.88;100.00
71970;BME280;59838;52.152;5.436;2023-03-25T06:54:54;100217.44;;;7.83;100.00
71970;BME280;59838;52.152;5.436;2023-03-25T06:57:21;100210.38;;;7.77;100.00
71970;BME280;59838;52.152;5.436;2023-03-25T06:59:47;100215.91;;;7.74;100.00
71970;BME280;59838;52.152;5.436;2023-03-25T07:02:14;100208.16;;;7.74;100.00
71970;BME280;59838;52.152;5.436;2023-03-25T07:04:41;100206.38;;;7.75;100.00
71970;BME280;59838;52.152;5.436;2023-03-25T07:07:07;100214.94;;;7.75;100.00
71970;BME280;59838;52.152;5.436;2023-03-25T07:09:34;100213.16;;;7.76;100.00
71970;BME280;59838;52.152;5.436;2023-03-25T07:12:01;100207.44;;;7.80;100.00
71970;BME280;59838;52.152;5.436;2023-03-25T07:14:27;100222.59;;;7.83;100.00
71970;BME280;59838;52.152;5.436;2023-03-25T07:16:54;100212.88;;;7.85;100.00
71970;BME280;59838;52.152;5.436;2023-03-25T07:19:21;100222.41;;;7.85;100.00
71970;BME280;59838;52.152;5.436;2023-03-25T07:21:48;100219.03;;;7.84;100.00
71970;BME280;59838;52.152;5.436;2023-03-25T07:24:14;100218.03;;;7.85;100.00
71970;BME280;59838;52.152;5.436;2023-03-25T07:26:41;100222.84;;;7.88;100.00
71970;BME280;59838;52.152;5.436;2023-03-25T07:29:07;100222.84;;;7.88;100.00
71970;BME280;59838;52.152;5.436;2023-03-25T07:31:33;100229.28;;;7.93;100.00
71970;BME280;59838;52.152;5.436;2023-03-25T07:34:00;100227.94;;;7.97;100.00
71970;BME280;59838;52.152;5.436;2023-03-25T07:36:28;100234.38;;;8.01;100.00
71970;BME280;59838;52.152;5.436;2023-03-25T07:38:54;100226.16;;;8.12;100.00
71970;BME280;59838;52.152;5.436;2023-03-25T07:41:22;100228.16;;;8.32;100.00
71970;BME280;59838;52.152;5.436;2023-03-25T07:43:49;100226.81;;;8.51;100.00
71970;BME280;59838;52.152;5.436;2023-03-25T07:46:15;100234.03;;;8.55;100.00
71970;BME280;59838;52.152;5.436;2023-03-25T07:48:41;100227.22;;;8.54;100.00
71970;BME280;59838;52.152;5.436;2023-03-25T07:51:08;100231.25;;;8.57;100.00
71970;BME280;59838;52.152;5.436;2023-03-25T07:53:35;100234.09;;;8.62;100.00
71970;BME280;59838;52.152;5.436;2023-03-25T07:56:05;100226.94;;;8.64;100.00
71970;BME280;59838;52.152;5.436;2023-03-25T07:58:31;100230.00;;;8.53;100.00
71970;BME280;59838;52.152;5.436;2023-03-25T08:00:58;100238.69;;;8.45;100.00
71970;BME280;59838;52.152;5.436;2023-03-25T08:03:24;100227.88;;;8.41;100.00
71970;BME280;59838;52.152;5.436;2023-03-25T08:05:53;100238.22;;;8.41;100.00
71970;BME280;59838;52.152;5.436;2023-03-25T08:08:19;100227.53;;;8.45;100.00
71970;BME280;59838;52.152;5.436;2023-03-25T08:10:46;100229.16;;;8.46;100.00
71970;BME280;59838;52.152;5.436;2023-03-25T08:13:13;100242.88;;;8.46;100.00
71970;BME280;59838;52.152;5.436;2023-03-25T08:15:40;100239.69;;;8.44;100.00
71970;BME280;59838;52.152;5.436;2023-03-25T08:18:06;100247.25;;;8.46;100.00
71970;BME280;59838;52.152;5.436;2023-03-25T08:20:33;100248.66;;;8.48;100.00
71970;BME280;59838;52.152;5.436;2023-03-25T08:23:00;100251.25;;;8.48;100.00
71970;BME280;59838;52.152;5.436;2023-03-25T08:25:29;100249.66;;;8.47;100.00
71970;BME280;59838;52.152;5.436;2023-03-25T08:27:55;100259.44;;;8.52;100.00
71970;BME280;59838;52.152;5.436;2023-03-25T08:30:22;100255.09;;;8.52;100.00
71970;BME280;59838;52.152;5.436;2023-03-25T08:32:48;100247.50;;;8.51;100.00
71970;BME280;59838;52.152;5.436;2023-03-25T08:35:21;100250.28;;;8.49;100.00
71970;BME280;59838;52.152;5.436;2023-03-25T08:37:49;100262.03;;;8.52;100.00
71970;BME280;59838;52.152;5.436;2023-03-25T08:40:15;100263.13;;;8.57;100.00
71970;BME280;59838;52.152;5.436;2023-03-25T08:42:42;100262.38;;;8.64;100.00
71970;BME280;59838;52.152;5.436;2023-03-25T08:45:09;100253.25;;;8.68;100.00
71970;BME280;59838;52.152;5.436;2023-03-25T08:47:36;100253.25;;;8.68;100.00
71970;BME280;59838;52.152;5.436;2023-03-25T08:50:03;100255.09;;;8.74;100.00
71970;BME280;59838;52.152;5.436;2023-03-25T08:52:29;100254.69;;;8.92;100.00
71970;BME280;59838;52.152;5.436;2023-03-25T08:54:56;100252.50;;;9.17;100.00
71970;BME280;59838;52.152;5.436;2023-03-25T08:57:22;100255.09;;;9.45;100.00
71970;BME280;59838;52.152;5.436;2023-03-25T08:59:48;100269.03;;;9.73;100.00
71970;BME280;59838;52.152;5.436;2023-03-25T09:02:15;100251.34;;;9.83;100.00
71970;BME280;59838;52.152;5.436;2023-03-25T09:04:42;100244.44;;;10.03;100.00
71970;BME280;59838;52.152;5.436;2023-03-25T09:07:08;100253.28;;;10.09;98.57
71970;BME280;59838;52.152;5.436;2023-03-25T09:09:39;100263.22;;;10.05;96.37
71970;BME280;59838;52.152;5.436;2023-03-25T09:12:07;100255.22;;;10.00;94.99
71970;BME280;59838;52.152;5.436;2023-03-25T09:14:33;100261.81;;;10.03;96.97
71970;BME280;59838;52.152;5.436;2023-03-25T09:17:00;100249.03;;;10.01;96.42
71970;BME280;59838;52.152;5.436;2023-03-25T09:19:26;100246.47;;;10.08;97.15
71970;BME280;59838;52.152;5.436;2023-03-25T09:21:53;100249.66;;;10.10;97.22
71970;BME280;59838;52.152;5.436;2023-03-25T09:24:19;100260.25;;;10.09;95.78
71970;BME280;59838;52.152;5.436;2023-03-25T09:26:48;100257.25;;;10.05;95.69
71970;BME280;59838;52.152;5.436;2023-03-25T09:29:14;100262.63;;;10.03;96.03
71970;BME280;59838;52.152;5.436;2023-03-25T09:31:41;100265.78;;;9.99;96.57
71970;BME280;59838;52.152;5.436;2023-03-25T09:34:07;100274.63;;;10.04;96.42
71970;BME280;59838;52.152;5.436;2023-03-25T09:36:34;100272.34;;;10.36;98.37
71970;BME280;59838;52.152;5.436;2023-03-25T09:39:00;100267.66;;;10.60;96.55
71970;BME280;59838;52.152;5.436;2023-03-25T09:44:11;100264.09;;;10.88;93.02
71970;BME280;59838;52.152;5.436;2023-03-25T09:46:39;100268.06;;;10.77;91.84
71970;BME280;59838;52.152;5.436;2023-03-25T09:49:34;100282.19;;;10.54;92.09
71970;BME280;59838;52.152;5.436;2023-03-25T09:52:03;100271.97;;;10.39;93.01
71970;BME280;59838;52.152;5.436;2023-03-25T09:54:35;100275.28;;;10.27;93.15
71970;BME280;59838;52.152;5.436;2023-03-25T09:57:07;100261.69;;;10.18;93.09
71970;BME280;59838;52.152;5.436;2023-03-25T09:59:47;100267.03;;;10.10;93.35
71970;BME280;59838;52.152;5.436;2023-03-25T10:19:35;100285.50;;;11.03;91.41
71970;BME280;59838;52.152;5.436;2023-03-25T10:22:17;100295.06;;;10.83;91.07
71970;BME280;59838;52.152;5.436;2023-03-25T10:24:58;100288.81;;;10.64;91.38
71970;BME280;59838;52.152;5.436;2023-03-25T10:27:34;100287.81;;;10.51;92.23
71970;BME280;59838;52.152;5.436;2023-03-25T10:32:45;100292.22;;;10.64;89.44
71970;BME280;59838;52.152;5.436;2023-03-25T10:35:18;100290.81;;;10.55;88.05
71970;BME280;59838;52.152;5.436;2023-03-25T10:37:48;100282.63;;;10.51;87.84
71970;BME280;59838;52.152;5.436;2023-03-25T10:40:30;100286.81;;;10.59;86.34
71970;BME280;59838;52.152;5.436;2023-03-25T10:45:42;100296.47;;;10.85;85.43
71970;BME280;59838;52.152;5.436;2023-03-25T10:48:27;100292.28;;;11.11;83.70
71970;BME280;59838;52.152;5.436;2023-03-25T10:51:08;100301.31;;;11.15;85.70
71970;BME280;59838;52.152;5.436;2023-03-25T10:53:35;100292.88;;;11.00;84.00
71970;BME280;59838;52.152;5.436;2023-03-25T10:56:08;100297.69;;;10.96;85.20
71970;BME280;59838;52.152;5.436;2023-03-25T10:58:39;100303.72;;;11.03;83.08
71970;BME280;59838;52.152;5.436;2023-03-25T11:01:18;100306.50;;;11.02;82.27
71970;BME280;59838;52.152;5.436;2023-03-25T11:03:49;100314.69;;;10.92;82.74
71970;BME280;59838;52.152;5.436;2023-03-25T11:06:29;100305.88;;;10.86;84.10
71970;BME280;59838;52.152;5.436;2023-03-25T11:09:10;100324.50;;;11.10;85.25
71970;BME280;59838;52.152;5.436;2023-03-25T11:11:40;100318.13;;;11.26;82.71
71970;BME280;59838;52.152;5.436;2023-03-25T11:14:07;100303.31;;;11.20;80.17
71970;BME280;59838;52.152;5.436;2023-03-25T11:17:10;100296.69;;;11.30;81.86
71970;BME280;59838;52.152;5.436;2023-03-25T11:22:27;100316.72;;;11.16;82.85
71970;BME280;59838;52.152;5.436;2023-03-25T11:25:05;100322.09;;;11.08;84.71
71970;BME280;59838;52.152;5.436;2023-03-25T11:27:41;100326.72;;;11.13;85.63
71970;BME280;59838;52.152;5.436;2023-03-25T11:30:18;100319.13;;;11.11;83.67
71970;BME280;59838;52.152;5.436;2023-03-25T11:33:04;100325.31;;;11.24;83.66
71970;BME280;59838;52.152;5.436;2023-03-25T11:35:37;100317.53;;;11.44;84.30
71970;BME280;59838;52.152;5.436;2023-03-25T11:38:19;100311.50;;;11.50;80.96
71970;BME280;59838;52.152;5.436;2023-03-25T11:40:57;100317.94;;;11.34;80.40
71970;BME280;59838;52.152;5.436;2023-03-25T11:43:25;100323.91;;;11.55;81.40
71970;BME280;59838;52.152;5.436;2023-03-25T11:45:55;100314.25;;;12.09;81.59
71970;BME280;59838;52.152;5.436;2023-03-25T11:48:23;100311.41;;;12.23;79.83
71970;BME280;59838;52.152;5.436;2023-03-25T11:50:56;100314.78;;;12.69;79.90
71970;BME280;59838;52.152;5.436;2023-03-25T11:53:26;100310.91;;;12.85;77.62
71970;BME280;59838;52.152;5.436;2023-03-25T11:55:56;100306.06;;;12.89;79.16
71970;BME280;59838;52.152;5.436;2023-03-25T11:58:27;100313.78;;;13.02;76.19
71970;BME280;59838;52.152;5.436;2023-03-25T12:01:02;100311.53;;;12.80;73.07
71970;BME280;59838;52.152;5.436;2023-03-25T12:03:31;100317.81;;;12.66;74.95
71970;BME280;59838;52.152;5.436;2023-03-25T12:08:43;100305.84;;;12.52;74.68
71970;BME280;59838;52.152;5.436;2023-03-25T12:11:31;100308.28;;;12.47;76.70
71970;BME280;59838;52.152;5.436;2023-03-25T12:14:24;100318.72;;;12.47;77.63
71970;BME280;59838;52.152;5.436;2023-03-25T12:17:07;100303.44;;;12.57;77.31
71970;BME280;59838;52.152;5.436;2023-03-25T12:27:51;100291.19;;;12.89;71.44
71970;BME280;59838;52.152;5.436;2023-03-25T12:42:11;100296.88;;;13.11;70.68
71970;BME280;59838;52.152;5.436;2023-03-25T12:45:22;100285.22;;;12.57;70.00
71970;BME280;59838;52.152;5.436;2023-03-25T12:48:14;100315.78;;;12.30;71.07
71970;BME280;59838;52.152;5.436;2023-03-25T12:53:54;100314.28;;;12.54;72.31
71970;BME280;59838;52.152;5.436;2023-03-25T12:59:51;100298.22;;;12.89;72.06
71970;BME280;59838;52.152;5.436;2023-03-25T13:05:21;100298.94;;;12.71;68.47
71970;BME280;59838;52.152;5.436;2023-03-25T13:07:56;100305.50;;;12.41;68.49
71970;BME280;59838;52.152;5.436;2023-03-25T13:10:38;100316.34;;;12.38;70.31
71970;BME280;59838;52.152;5.436;2023-03-25T13:13:13;100311.31;;;12.82;72.92
71970;BME280;59838;52.152;5.436;2023-03-25T13:15:45;100288.94;;;12.99;69.51
71970;BME280;59838;52.152;5.436;2023-03-25T13:18:20;100290.84;;;12.86;69.89
71970;BME280;59838;52.152;5.436;2023-03-25T13:21:00;100313.19;;;12.68;70.82
71970;BME280;59838;52.152;5.436;2023-03-25T13:23:39;100312.34;;;12.74;71.09
71970;BME280;59838;52.152;5.436;2023-03-25T13:26:09;100315.59;;;12.70;70.25
71970;BME280;59838;52.152;5.436;2023-03-25T13:31:25;100308.75;;;12.75;69.11
71970;BME280;59838;52.152;5.436;2023-03-25T13:34:02;100325.25;;;13.01;70.81
71970;BME280;59838;52.152;5.436;2023-03-25T13:36:35;100330.47;;;13.26;69.47
71970;BME280;59838;52.152;5.436;2023-03-25T13:39:14;100325.19;;;13.40;68.98
71970;BME280;59838;52.152;5.436;2023-03-25T13:41:46;100332.91;;;13.53;69.97
71970;BME280;59838;52.152;5.436;2023-03-25T13:44:21;100311.25;;;13.71;68.47
71970;BME280;59838;52.152;5.436;2023-03-25T13:46:55;100321.72;;;13.46;68.09
71970;BME280;59838;52.152;5.436;2023-03-25T13:49:54;100334.06;;;13.00;69.34
71970;BME280;59838;52.152;5.436;2023-03-25T13:52:25;100327.53;;;12.84;69.99
71970;BME280;59838;52.152;5.436;2023-03-25T13:54:59;100344.19;;;12.83;69.82
71970;BME280;59838;52.152;5.436;2023-03-25T14:00:53;100332.38;;;13.12;70.04
71970;BME280;59838;52.152;5.436;2023-03-25T14:04:04;100333.09;;;12.94;69.53
71970;BME280;59838;52.152;5.436;2023-03-25T14:07:06;100389.03;;;12.53;72.14
71970;BME280;59838;52.152;5.436;2023-03-25T14:12:14;100391.75;;;10.65;82.54
71970;BME280;59838;52.152;5.436;2023-03-25T14:14:55;100408.78;;;10.32;85.23
71970;BME280;59838;52.152;5.436;2023-03-25T14:17:25;100406.88;;;10.19;86.60
71970;BME280;59838;52.152;5.436;2023-03-25T14:19:56;100421.75;;;10.11;88.33
71970;BME280;59838;52.152;5.436;2023-03-25T14:22:29;100433.16;;;10.10;89.34
71970;BME280;59838;52.152;5.436;2023-03-25T14:24:58;100421.38;;;10.14;90.10
71970;BME280;59838;52.152;5.436;2023-03-25T14:27:27;100407.22;;;10.45;92.03
71970;BME280;59838;52.152;5.436;2023-03-25T14:30:26;100401.84;;;11.01;91.18
71970;BME280;59838;52.152;5.436;2023-03-25T14:32:54;100399.72;;;11.31;89.51
71970;BME280;59838;52.152;5.436;2023-03-25T14:43:38;100400.56;;;11.85;85.16
71970;BME280;59838;52.152;5.436;2023-03-25T14:53:40;100389.78;;;12.02;83.84
71970;BME280;59838;52.152;5.436;2023-03-25T14:56:17;100382.13;;;12.20;81.48
71970;BME280;59838;52.152;5.436;2023-03-25T14:58:50;100403.34;;;12.17;80.68
71970;BME280;59838;52.152;5.436;2023-03-25T15:01:19;100392.38;;;12.02;81.25
71970;BME280;59838;52.152;5.436;2023-03-25T15:03:47;100406.59;;;11.79;81.08
71970;BME280;59838;52.152;5.436;2023-03-25T15:06:17;100396.75;;;11.55;80.19
71970;BME280;59838;52.152;5.436;2023-03-25T15:08:56;100417.34;;;11.36;81.31
71970;BME280;59838;52.152;5.436;2023-03-25T15:11:31;100402.13;;;11.20;81.78
71970;BME280;59838;52.152;5.436;2023-03-25T15:14:02;100398.06;;;11.04;83.83
71970;BME280;59838;52.152;5.436;2023-03-25T15:16:34;100400.44;;;10.92;84.22
71970;BME280;59838;52.152;5.436;2023-03-25T15:19:10;100416.81;;;10.86;82.66
71970;BME280;59838;52.152;5.436;2023-03-25T15:24:31;100523.88;;;9.75;82.07
71970;BME280;59838;52.152;5.436;2023-03-25T15:49:50;100529.41;;;8.22;91.22
71970;BME280;59838;52.152;5.436;2023-03-25T15:52:49;100524.72;;;8.03;92.13
71970;BME280;59838;52.152;5.436;2023-03-25T15:55:49;100536.75;;;7.96;93.29
71970;BME280;59838;52.152;5.436;2023-03-25T15:58:27;100539.97;;;7.98;94.47
71970;BME280;59838;52.152;5.436;2023-03-25T16:01:06;100534.09;;;8.04;94.63
71970;BME280;59838;52.152;5.436;2023-03-25T16:03:38;100530.47;;;8.13;95.98
71970;BME280;59838;52.152;5.436;2023-03-25T16:06:06;100533.19;;;8.20;95.87
71970;BME280;59838;52.152;5.436;2023-03-25T16:08:36;100518.91;;;8.24;96.11
71970;BME280;59838;52.152;5.436;2023-03-25T16:11:23;100528.28;;;8.25;96.55
71970;BME280;59838;52.152;5.436;2023-03-25T16:14:15;100537.84;;;8.24;96.74
71970;BME280;59838;52.152;5.436;2023-03-25T16:16:48;100543.34;;;8.21;97.39
71970;BME280;59838;52.152;5.436;2023-03-25T16:19:20;100551.13;;;8.21;97.92
71970;BME280;59838;52.152;5.436;2023-03-25T16:21:49;100546.91;;;8.20;98.34
71970;BME280;59838;52.152;5.436;2023-03-25T16:24:19;100539.31;;;8.19;98.20
71970;BME280;59838;52.152;5.436;2023-03-25T16:26:48;100570.19;;;8.20;98.36
71970;BME280;59838;52.152;5.436;2023-03-25T16:29:21;100576.19;;;8.21;98.85
71970;BME280;59838;52.152;5.436;2023-03-25T16:32:02;100576.19;;;8.21;99.16
71970;BME280;59838;52.152;5.436;2023-03-25T16:34:34;100574.31;;;8.15;99.17
71970;BME280;59838;52.152;5.436;2023-03-25T16:37:04;100588.09;;;8.07;98.80
71970;BME280;59838;52.152;5.436;2023-03-25T16:39:32;100563.69;;;8.01;99.06
71970;BME280;59838;52.152;5.436;2023-03-25T16:42:05;100559.53;;;8.00;99.14
71970;BME280;59838;52.152;5.436;2023-03-25T16:44:33;100556.59;;;8.03;99.55
71970;BME280;59838;52.152;5.436;2023-03-25T16:47:00;100560.88;;;8.11;99.47
71970;BME280;59838;52.152;5.436;2023-03-25T16:49:35;100550.19;;;8.14;99.07
71970;BME280;59838;52.152;5.436;2023-03-25T16:52:09;100570.09;;;8.14;98.44
71970;BME280;59838;52.152;5.436;2023-03-25T16:57:26;100578.19;;;8.11;98.62
71970;BME280;59838;52.152;5.436;2023-03-25T16:59:54;100585.16;;;8.10;98.82
71970;BME280;59838;52.152;5.436;2023-03-25T17:04:53;100585.28;;;8.17;98.87
71970;BME280;59838;52.152;5.436;2023-03-25T17:07:25;100590.91;;;8.20;99.50
71970;BME280;59838;52.152;5.436;2023-03-25T17:09:58;100592.88;;;8.18;99.75
71970;BME280;59838;52.152;5.436;2023-03-25T17:12:27;100605.19;;;8.16;100.00
71970;BME280;59838;52.152;5.436;2023-03-25T17:15:01;100613.91;;;8.15;100.00
71970;BME280;59838;52.152;5.436;2023-03-25T17:17:42;100614.72;;;8.16;100.00